createdAt,value
2017-12-16T05:00:36.976Z,999.14
2017-12-16T05:01:02.475Z,999.12
2017-12-16T05:01:28.010Z,999.14
2017-12-16T05:01:53.507Z,999.15
2017-12-16T05:02:19.008Z,999.12
2017-12-16T05:02:44.502Z,999.15
2017-12-16T05:03:10.013Z,999.17
2017-12-16T05:03:35.519Z,999.16
2017-12-16T05:04:01.022Z,999.14
2017-12-16T05:04:26.514Z,999.17
2017-12-16T05:04:52.029Z,999.15
2017-12-16T05:05:17.535Z,999.17
2017-12-16T05:05:43.052Z,999.16
2017-12-16T05:06:08.525Z,999.16
2017-12-16T05:06:34.020Z,999.14
2017-12-16T05:06:59.519Z,999.17
2017-12-16T05:07:25.016Z,999.2
2017-12-16T05:07:50.490Z,999.2
2017-12-16T05:08:15.989Z,999.21
2017-12-16T05:08:41.472Z,999.21
2017-12-16T05:09:06.937Z,999.21
2017-12-16T05:09:32.435Z,999.24
2017-12-16T05:09:57.930Z,999.22
2017-12-16T05:10:23.402Z,999.24
2017-12-16T05:10:48.967Z,999.2
2017-12-16T05:11:14.410Z,999.19
2017-12-16T05:11:39.902Z,999.26
2017-12-16T05:12:05.399Z,999.21
2017-12-16T05:12:30.888Z,999.24
2017-12-16T05:12:56.436Z,999.21
2017-12-16T05:13:21.957Z,999.26
2017-12-16T05:13:47.438Z,999.28
2017-12-16T05:14:12.957Z,999.23
2017-12-16T05:14:38.463Z,999.23
2017-12-16T05:15:03.951Z,999.22
2017-12-16T05:15:29.437Z,999.23
2017-12-16T05:15:54.929Z,999.24
2017-12-16T05:16:20.418Z,999.23
2017-12-16T05:16:45.931Z,999.24
2017-12-16T05:17:11.430Z,999.24
2017-12-16T05:17:36.945Z,999.23
2017-12-16T05:18:02.457Z,999.21
2017-12-16T05:18:27.985Z,999.27
2017-12-16T05:18:53.504Z,999.25
2017-12-16T05:19:19.042Z,999.25
2017-12-16T05:19:44.581Z,999.3
2017-12-16T05:20:10.104Z,999.23
2017-12-16T05:20:35.570Z,999.24
2017-12-16T05:21:01.067Z,999.27
2017-12-16T05:21:26.557Z,999.25
2017-12-16T05:21:52.045Z,999.25
2017-12-16T05:23:05.847Z,999.29
2017-12-16T05:23:31.361Z,999.32
2017-12-16T05:23:56.843Z,999.33
2017-12-16T05:24:22.375Z,999.36
2017-12-16T05:24:47.833Z,999.36
2017-12-16T05:25:13.343Z,999.41
2017-12-16T05:25:38.814Z,999.36
2017-12-16T05:26:04.286Z,999.33
2017-12-16T05:26:29.783Z,999.38
2017-12-16T05:26:55.291Z,999.38
2017-12-16T05:27:20.792Z,999.41
2017-12-16T05:27:46.279Z,999.43
2017-12-16T05:28:11.780Z,999.43
2017-12-16T05:28:37.282Z,999.41
2017-12-16T05:29:02.791Z,999.48
2017-12-16T05:29:28.294Z,999.44
2017-12-16T05:29:53.754Z,999.42
2017-12-16T05:30:19.236Z,999.44
2017-12-16T05:30:44.702Z,999.42
2017-12-16T05:31:10.216Z,999.44
2017-12-16T05:31:35.678Z,999.43
2017-12-16T05:32:44.360Z,999.46
2017-12-16T05:33:09.861Z,999.43
2017-12-16T05:33:35.365Z,999.47
2017-12-16T05:34:00.842Z,999.5
2017-12-16T05:34:26.364Z,999.45
2017-12-16T05:34:51.864Z,999.46
2017-12-16T05:35:17.347Z,999.45
2017-12-16T05:35:42.853Z,999.44
2017-12-16T05:36:08.347Z,999.44
2017-12-16T05:36:33.845Z,999.44
2017-12-16T05:36:59.331Z,999.47
2017-12-16T05:37:24.834Z,999.44
2017-12-16T05:37:50.330Z,999.47
2017-12-16T05:38:15.814Z,999.45
2017-12-16T05:38:41.341Z,999.48
2017-12-16T05:40:00.281Z,999.43
2017-12-16T05:40:25.786Z,999.41
2017-12-16T05:40:51.270Z,999.48
2017-12-16T05:41:16.754Z,999.43
2017-12-16T05:41:42.272Z,999.46
2017-12-16T05:42:07.771Z,999.43
2017-12-16T05:42:33.264Z,999.49
2017-12-16T05:42:58.786Z,999.43
2017-12-16T05:43:24.263Z,999.49
2017-12-16T05:43:49.762Z,999.49
2017-12-16T05:44:15.255Z,999.48
2017-12-16T05:44:40.747Z,999.56
2017-12-16T05:45:06.217Z,999.56
2017-12-16T05:45:31.725Z,999.55
2017-12-16T05:45:57.211Z,999.56
2017-12-16T05:46:22.692Z,999.57
2017-12-16T05:46:48.175Z,999.57
2017-12-16T05:47:13.660Z,999.55
2017-12-16T05:47:39.200Z,999.58
2017-12-16T05:48:04.718Z,999.61
2017-12-16T05:48:30.163Z,999.58
2017-12-16T05:48:55.612Z,999.57
2017-12-16T05:49:21.134Z,999.56
2017-12-16T05:49:46.620Z,999.57
2017-12-16T05:50:12.108Z,999.55
2017-12-16T05:50:37.582Z,999.55
2017-12-16T05:51:03.102Z,999.58
2017-12-16T05:51:28.591Z,999.56
2017-12-16T05:51:54.094Z,999.52
2017-12-16T05:52:19.598Z,999.52
2017-12-16T05:52:45.071Z,999.58
2017-12-16T05:53:10.565Z,999.62
2017-12-16T05:53:36.022Z,999.6
2017-12-16T05:54:01.524Z,999.63
2017-12-16T05:54:27.034Z,999.61
2017-12-16T05:54:52.559Z,999.62
2017-12-16T05:56:01.270Z,999.68
2017-12-16T05:56:26.761Z,999.68
2017-12-16T05:56:52.260Z,999.71
2017-12-16T05:57:17.768Z,999.64
2017-12-16T05:57:43.257Z,999.69
2017-12-16T05:58:08.773Z,999.68
2017-12-16T05:58:34.250Z,999.7
2017-12-16T05:58:59.733Z,999.7
2017-12-16T05:59:25.237Z,999.72
2017-12-16T05:59:50.750Z,999.69
2017-12-16T06:00:16.241Z,999.71
2017-12-16T06:00:41.745Z,999.69
2017-12-16T06:01:07.246Z,999.69
2017-12-16T06:01:32.724Z,999.69
2017-12-16T06:01:58.220Z,999.69
2017-12-16T06:02:23.708Z,999.71
2017-12-16T06:02:49.178Z,999.64
2017-12-16T06:03:47.702Z,999.71
2017-12-16T06:04:13.212Z,999.71
2017-12-16T06:04:38.711Z,999.72
2017-12-16T06:05:04.206Z,999.76
2017-12-16T06:05:29.706Z,999.74
2017-12-16T06:05:55.204Z,999.7
2017-12-16T06:06:20.685Z,999.75
2017-12-16T06:06:46.179Z,999.73
2017-12-16T06:07:11.731Z,999.73
2017-12-16T06:07:37.219Z,999.78
2017-12-16T06:08:02.706Z,999.82
2017-12-16T06:08:28.181Z,999.78
2017-12-16T06:08:53.654Z,999.78
2017-12-16T06:09:19.176Z,999.79
2017-12-16T06:10:27.891Z,999.77
2017-12-16T06:10:53.382Z,999.76
2017-12-16T06:11:18.884Z,999.77
2017-12-16T06:11:44.380Z,999.79
2017-12-16T06:12:09.886Z,999.79
2017-12-16T06:12:35.394Z,999.81
2017-12-16T06:13:00.872Z,999.77
2017-12-16T06:13:26.405Z,999.77
2017-12-16T06:13:51.922Z,999.75
2017-12-16T06:14:17.392Z,999.8
2017-12-16T06:14:42.887Z,999.78
2017-12-16T06:15:08.349Z,999.79
2017-12-16T06:15:33.844Z,999.78
2017-12-16T06:15:59.328Z,999.8
2017-12-16T06:16:24.838Z,999.8
2017-12-16T06:16:50.317Z,999.78
2017-12-16T06:17:15.838Z,999.84
2017-12-16T06:17:41.335Z,999.78
2017-12-16T06:18:44.923Z,999.8
2017-12-16T06:19:10.420Z,999.79
2017-12-16T06:19:35.901Z,999.84
2017-12-16T06:20:01.414Z,999.82
2017-12-16T06:20:26.909Z,999.84
2017-12-16T06:20:52.447Z,999.87
2017-12-16T06:21:17.951Z,999.86
2017-12-16T06:21:43.438Z,999.84
2017-12-16T06:22:08.906Z,999.89
2017-12-16T06:22:34.430Z,999.88
2017-12-16T06:22:59.909Z,999.87
2017-12-16T06:23:25.394Z,999.88
2017-12-16T06:23:50.928Z,999.88
2017-12-16T06:24:16.443Z,999.85
2017-12-16T06:24:41.898Z,999.87
2017-12-16T06:25:07.423Z,999.86
2017-12-16T06:25:32.924Z,999.88
2017-12-16T06:25:58.421Z,999.9
2017-12-16T06:26:23.942Z,999.92
2017-12-16T06:26:49.463Z,999.93
2017-12-16T06:27:14.980Z,999.89
2017-12-16T06:27:40.441Z,999.92
2017-12-16T06:28:05.907Z,999.9
2017-12-16T06:28:31.409Z,999.91
2017-12-16T06:28:56.892Z,999.92
2017-12-16T06:29:22.407Z,999.93
2017-12-16T06:29:47.909Z,999.97
2017-12-16T06:30:13.395Z,999.92
2017-12-16T06:30:38.887Z,999.93
2017-12-16T06:31:52.678Z,999.91
2017-12-16T06:32:18.167Z,999.94
2017-12-16T06:32:43.674Z,999.93
2017-12-16T06:33:09.171Z,999.96
2017-12-16T06:34:07.682Z,999.96
2017-12-16T06:34:33.178Z,999.97
2017-12-16T06:34:58.703Z,999.92
2017-12-16T06:35:24.189Z,999.96
2017-12-16T06:35:49.691Z,999.94
2017-12-16T06:36:15.136Z,1000.02
2017-12-16T06:36:40.654Z,1000
2017-12-16T06:37:06.171Z,1000
2017-12-16T06:37:31.668Z,999.99
2017-12-16T06:37:57.176Z,999.99
2017-12-16T06:38:22.684Z,999.99
2017-12-16T06:38:48.165Z,1000
2017-12-16T06:39:13.682Z,1000.04
2017-12-16T06:39:39.176Z,1000.01
2017-12-16T06:40:04.690Z,1000.01
2017-12-16T06:40:30.173Z,1000.03
2017-12-16T06:40:55.660Z,1000.05
2017-12-16T06:41:21.153Z,1000.01
2017-12-16T06:41:46.616Z,999.99
2017-12-16T06:42:12.093Z,1000.01
2017-12-16T06:42:37.621Z,1000.04
2017-12-16T06:43:03.073Z,1000.04
2017-12-16T06:43:28.545Z,1000.03
2017-12-16T06:43:54.038Z,1000.05
2017-12-16T06:44:19.532Z,1000.02
2017-12-16T06:44:45.009Z,1000.07
2017-12-16T06:45:10.515Z,1000.06
2017-12-16T06:45:36.020Z,1000.06
2017-12-16T06:46:01.518Z,1000.06
2017-12-16T06:46:27.021Z,1000.08
2017-12-16T06:46:52.519Z,1000.11
2017-12-16T06:47:18.013Z,1000.09
2017-12-16T06:47:43.515Z,1000.08
2017-12-16T06:48:09.031Z,1000.11
2017-12-16T06:48:34.532Z,1000.11
2017-12-16T06:49:00.046Z,1000.06
2017-12-16T06:49:25.545Z,1000.13
2017-12-16T06:49:51.028Z,1000.13
2017-12-16T06:50:16.503Z,1000.12
2017-12-16T06:50:41.998Z,1000.13
2017-12-16T06:51:07.468Z,1000.17
2017-12-16T06:51:32.990Z,1000.18
2017-12-16T06:51:58.486Z,1000.16
2017-12-16T06:52:24.000Z,1000.16
2017-12-16T06:52:49.469Z,1000.21
2017-12-16T06:53:14.965Z,1000.24
2017-12-16T06:53:40.482Z,1000.26
2017-12-16T06:54:05.951Z,1000.26
2017-12-16T06:54:31.419Z,1000.24
2017-12-16T06:54:56.923Z,1000.27
2017-12-16T06:55:22.419Z,1000.24
2017-12-16T06:55:47.897Z,1000.25
2017-12-16T06:56:13.408Z,1000.27
2017-12-16T06:56:38.904Z,1000.26
2017-12-16T06:57:04.404Z,1000.3
2017-12-16T06:57:29.914Z,1000.28
2017-12-16T06:57:55.396Z,1000.29
2017-12-16T06:58:20.869Z,1000.25
2017-12-16T06:59:19.373Z,1000.26
2017-12-16T06:59:44.888Z,1000.28
2017-12-16T07:00:10.376Z,1000.3
2017-12-16T07:00:35.879Z,1000.3
2017-12-16T07:01:01.373Z,1000.26
2017-12-16T07:01:26.856Z,1000.29
2017-12-16T07:01:52.348Z,1000.27
2017-12-16T07:03:01.026Z,1000.3
2017-12-16T07:03:26.529Z,1000.32
2017-12-16T07:03:52.011Z,1000.26
2017-12-16T07:04:17.492Z,1000.3
2017-12-16T07:04:42.979Z,1000.29
2017-12-16T07:05:08.487Z,1000.27
2017-12-16T07:05:34.013Z,1000.29
2017-12-16T07:05:59.508Z,1000.33
2017-12-16T07:06:25.009Z,1000.29
2017-12-16T07:06:50.492Z,1000.32
2017-12-16T07:07:16.001Z,1000.33
2017-12-16T07:07:41.497Z,1000.35
2017-12-16T07:08:06.963Z,1000.34
2017-12-16T07:08:32.467Z,1000.35
2017-12-16T07:08:57.951Z,1000.32
2017-12-16T07:09:23.429Z,1000.35
2017-12-16T07:09:48.918Z,1000.34
2017-12-16T07:10:14.386Z,1000.35
2017-12-16T07:10:39.876Z,1000.37
2017-12-16T07:11:05.357Z,1000.32
2017-12-16T07:11:30.836Z,1000.35
2017-12-16T07:11:56.312Z,1000.35
2017-12-16T07:12:21.818Z,1000.4
2017-12-16T07:12:47.263Z,1000.34
2017-12-16T07:13:12.762Z,1000.4
2017-12-16T07:13:38.235Z,1000.36
2017-12-16T07:14:03.767Z,1000.38
2017-12-16T07:14:29.272Z,1000.41
2017-12-16T07:14:54.756Z,1000.39
2017-12-16T07:15:20.237Z,1000.42
2017-12-16T07:15:45.725Z,1000.38
2017-12-16T07:16:11.212Z,1000.45
2017-12-16T07:16:36.640Z,1000.48
2017-12-16T07:17:02.120Z,1000.46
2017-12-16T07:17:27.607Z,1000.5
2017-12-16T07:17:53.080Z,1000.54
2017-12-16T07:18:18.533Z,1000.49
2017-12-16T07:18:44.039Z,1000.52
2017-12-16T07:19:09.526Z,1000.52
2017-12-16T07:19:34.987Z,1000.52
2017-12-16T07:20:00.516Z,1000.55
2017-12-16T07:20:26.022Z,1000.58
2017-12-16T07:20:51.503Z,1000.56
2017-12-16T07:21:16.980Z,1000.56
2017-12-16T07:21:42.493Z,1000.55
2017-12-16T07:22:56.281Z,1000.61
2017-12-16T07:23:21.761Z,1000.65
2017-12-16T07:23:47.263Z,1000.62
2017-12-16T07:24:12.766Z,1000.63
2017-12-16T07:24:38.237Z,1000.64
2017-12-16T07:25:03.761Z,1000.63
2017-12-16T07:25:29.262Z,1000.65
2017-12-16T07:25:54.738Z,1000.64
2017-12-16T07:26:20.242Z,1000.68
2017-12-16T07:26:45.718Z,1000.64
2017-12-16T07:27:11.220Z,1000.64
2017-12-16T07:27:36.718Z,1000.65
2017-12-16T07:28:02.223Z,1000.67
2017-12-16T07:28:27.698Z,1000.65
2017-12-16T07:28:53.146Z,1000.7
2017-12-16T07:29:18.649Z,1000.7
2017-12-16T07:29:44.142Z,1000.71
2017-12-16T07:30:09.626Z,1000.7
2017-12-16T07:30:35.111Z,1000.73
2017-12-16T07:31:00.632Z,1000.73
2017-12-16T07:31:26.089Z,1000.72
2017-12-16T07:31:51.588Z,1000.78
2017-12-16T07:32:17.059Z,1000.77
2017-12-16T07:32:42.558Z,1000.77
2017-12-16T07:33:08.073Z,1000.79
2017-12-16T07:33:33.562Z,1000.75
2017-12-16T07:34:32.331Z,1000.8
2017-12-16T07:34:57.821Z,1000.81
2017-12-16T07:35:23.312Z,1000.81
2017-12-16T07:35:48.800Z,1000.83
2017-12-16T07:36:14.316Z,1000.81
2017-12-16T07:36:39.768Z,1000.85
2017-12-16T07:37:05.269Z,1000.84
2017-12-16T07:37:30.810Z,1000.87
2017-12-16T07:37:56.214Z,1000.87
2017-12-16T07:38:21.711Z,1000.9
2017-12-16T07:38:47.198Z,1000.87
2017-12-16T07:39:12.697Z,1000.86
2017-12-16T07:39:38.192Z,1000.89
2017-12-16T07:40:03.667Z,1000.94
2017-12-16T07:40:29.184Z,1000.91
2017-12-16T07:40:54.642Z,1000.92
2017-12-16T07:41:20.143Z,1000.93
2017-12-16T07:41:45.633Z,1000.92
2017-12-16T07:42:11.116Z,1000.97
2017-12-16T07:42:36.601Z,1000.92
2017-12-16T07:43:02.092Z,1000.9
2017-12-16T07:43:27.618Z,1000.95
2017-12-16T07:43:53.098Z,1000.96
2017-12-16T07:45:01.818Z,1000.96
2017-12-16T07:45:27.283Z,1000.97
2017-12-16T07:45:52.813Z,1000.98
2017-12-16T07:46:18.306Z,1000.96
2017-12-16T07:46:43.788Z,1000.97
2017-12-16T07:47:09.265Z,1000.94
2017-12-16T07:47:34.763Z,1000.92
2017-12-16T07:48:00.255Z,1001
2017-12-16T07:49:14.026Z,1001
2017-12-16T07:49:39.517Z,1001
2017-12-16T07:50:05.010Z,1000.98
2017-12-16T07:50:30.490Z,1000.98
2017-12-16T07:50:55.986Z,1000.97
2017-12-16T07:51:21.472Z,1000.97
2017-12-16T07:51:46.964Z,1001.05
2017-12-16T07:52:12.457Z,1001.03
2017-12-16T07:52:37.925Z,1001.07
2017-12-16T07:53:03.399Z,1001.09
2017-12-16T07:53:28.900Z,1001.06
2017-12-16T07:53:54.401Z,1001.04
2017-12-16T07:54:19.859Z,1001.08
2017-12-16T07:54:45.348Z,1001.12
2017-12-16T07:55:10.834Z,1001.06
2017-12-16T07:55:36.336Z,1001.09
2017-12-16T07:56:01.844Z,1001.06
2017-12-16T07:56:27.326Z,1001.09
2017-12-16T07:56:52.789Z,1001.09
2017-12-16T07:57:18.315Z,1001.11
2017-12-16T07:57:43.785Z,1001.08
2017-12-16T07:58:09.270Z,1001.08
2017-12-16T07:58:34.773Z,1001.09
2017-12-16T07:59:00.257Z,1001.08
2017-12-16T07:59:25.742Z,1001.1
2017-12-16T07:59:51.198Z,1001.15
2017-12-16T08:00:16.691Z,1001.08
2017-12-16T08:00:42.182Z,1001.1
2017-12-16T08:01:07.677Z,1001.12
2017-12-16T08:01:33.178Z,1001.14
2017-12-16T08:01:58.634Z,1001.18
2017-12-16T08:02:24.093Z,1001.15
2017-12-16T08:02:49.602Z,1001.17
2017-12-16T08:03:15.074Z,1001.2
2017-12-16T08:03:40.554Z,1001.18
2017-12-16T08:04:06.103Z,1001.2
2017-12-16T08:04:31.592Z,1001.25
2017-12-16T08:04:57.066Z,1001.2
2017-12-16T08:05:22.573Z,1001.19
2017-12-16T08:05:48.078Z,1001.22
2017-12-16T08:06:13.562Z,1001.23
2017-12-16T08:06:39.066Z,1001.27
2017-12-16T08:07:04.564Z,1001.24
2017-12-16T08:07:30.063Z,1001.3
2017-12-16T08:07:55.541Z,1001.28
2017-12-16T08:08:21.017Z,1001.32
2017-12-16T08:08:46.519Z,1001.32
2017-12-16T08:10:05.442Z,1001.35
2017-12-16T08:10:30.926Z,1001.38
2017-12-16T08:10:56.400Z,1001.35
2017-12-16T08:11:21.887Z,1001.4
2017-12-16T08:11:47.365Z,1001.41
2017-12-16T08:12:12.842Z,1001.38
2017-12-16T08:12:38.343Z,1001.36
2017-12-16T08:13:03.868Z,1001.41
2017-12-16T08:13:29.389Z,1001.39
2017-12-16T08:13:54.882Z,1001.38
2017-12-16T08:14:20.387Z,1001.37
2017-12-16T08:14:45.875Z,1001.38
2017-12-16T08:15:11.339Z,1001.41
2017-12-16T08:15:36.885Z,1001.39
2017-12-16T08:16:02.336Z,1001.42
2017-12-16T08:16:27.831Z,1001.43
2017-12-16T08:16:53.311Z,1001.43
2017-12-16T08:17:18.781Z,1001.41
2017-12-16T08:17:44.268Z,1001.42
2017-12-16T08:18:09.761Z,1001.42
2017-12-16T08:18:35.260Z,1001.39
2017-12-16T08:19:00.746Z,1001.45
2017-12-16T08:19:26.241Z,1001.45
2017-12-16T08:19:51.756Z,1001.44
2017-12-16T08:20:17.274Z,1001.43
2017-12-16T08:20:42.726Z,1001.48
2017-12-16T08:21:08.203Z,1001.48
2017-12-16T08:21:33.710Z,1001.5
2017-12-16T08:21:59.189Z,1001.51
2017-12-16T08:22:24.705Z,1001.54
2017-12-16T08:22:50.207Z,1001.5
2017-12-16T08:23:15.699Z,1001.46
2017-12-16T08:23:41.226Z,1001.51
2017-12-16T08:24:06.707Z,1001.55
2017-12-16T08:24:32.199Z,1001.55
2017-12-16T08:24:57.656Z,1001.52
2017-12-16T08:25:23.144Z,1001.51
2017-12-16T08:25:48.634Z,1001.57
2017-12-16T08:26:14.134Z,1001.57
2017-12-16T08:26:39.616Z,1001.53
2017-12-16T08:27:05.092Z,1001.53
2017-12-16T08:27:30.601Z,1001.58
2017-12-16T08:27:56.106Z,1001.56
2017-12-16T08:28:21.596Z,1001.58
2017-12-16T08:28:47.055Z,1001.55
2017-12-16T08:29:12.540Z,1001.54
2017-12-16T08:30:31.669Z,1001.5
2017-12-16T08:30:57.172Z,1001.51
2017-12-16T08:31:22.727Z,1001.54
2017-12-16T08:31:48.216Z,1001.58
2017-12-16T08:32:13.720Z,1001.52
2017-12-16T08:33:32.663Z,1001.54
2017-12-16T08:33:58.151Z,1001.54
2017-12-16T08:34:23.603Z,1001.54
2017-12-16T08:34:49.095Z,1001.57
2017-12-16T08:35:14.593Z,1001.57
2017-12-16T08:35:40.107Z,1001.6
2017-12-16T08:36:05.596Z,1001.59
2017-12-16T08:36:31.074Z,1001.61
2017-12-16T08:36:56.563Z,1001.62
2017-12-16T08:37:22.152Z,1001.61
2017-12-16T08:37:47.615Z,1001.63
2017-12-16T08:38:13.075Z,1001.65
2017-12-16T08:38:38.588Z,1001.65
2017-12-16T08:39:04.062Z,1001.63
2017-12-16T08:39:29.562Z,1001.62
2017-12-16T08:39:55.063Z,1001.63
2017-12-16T08:40:20.549Z,1001.63
2017-12-16T08:40:46.048Z,1001.69
2017-12-16T08:41:11.575Z,1001.62
2017-12-16T08:41:37.052Z,1001.67
2017-12-16T08:42:02.530Z,1001.68
2017-12-16T08:42:28.054Z,1001.71
2017-12-16T08:42:53.550Z,1001.64
2017-12-16T08:43:19.025Z,1001.66
2017-12-16T08:44:38.230Z,1001.69
2017-12-16T08:45:03.718Z,1001.67
2017-12-16T08:45:29.203Z,1001.73
2017-12-16T08:45:54.698Z,1001.76
2017-12-16T08:46:20.173Z,1001.71
2017-12-16T08:46:45.666Z,1001.73
2017-12-16T08:47:11.167Z,1001.73
2017-12-16T08:47:36.669Z,1001.71
2017-12-16T08:48:02.151Z,1001.73
2017-12-16T08:48:27.659Z,1001.77
2017-12-16T08:48:53.157Z,1001.77
2017-12-16T08:49:18.664Z,1001.84
2017-12-16T08:49:44.178Z,1001.8
2017-12-16T08:50:09.661Z,1001.8
2017-12-16T08:50:35.171Z,1001.81
2017-12-16T08:51:00.685Z,1001.81
2017-12-16T08:51:26.154Z,1001.81
2017-12-16T08:51:51.640Z,1001.78
2017-12-16T08:52:17.165Z,1001.79
2017-12-16T08:52:42.653Z,1001.79
2017-12-16T08:53:08.149Z,1001.82
2017-12-16T08:53:33.646Z,1001.83
2017-12-16T08:53:59.136Z,1001.82
2017-12-16T08:54:24.615Z,1001.82
2017-12-16T08:54:50.114Z,1001.85
2017-12-16T08:55:15.618Z,1001.87
2017-12-16T08:55:41.161Z,1001.85
2017-12-16T08:56:06.693Z,1001.89
2017-12-16T08:56:32.180Z,1001.85
2017-12-16T08:56:57.669Z,1001.85
2017-12-16T08:57:23.124Z,1001.87
2017-12-16T08:57:48.627Z,1001.88
2017-12-16T08:58:14.111Z,1001.87
2017-12-16T08:58:39.629Z,1001.85
2017-12-16T08:59:05.115Z,1001.89
2017-12-16T08:59:30.589Z,1001.88
2017-12-16T08:59:56.093Z,1001.85
2017-12-16T09:00:21.573Z,1001.88
2017-12-16T09:00:47.048Z,1001.85
2017-12-16T09:01:12.558Z,1001.84
2017-12-16T09:01:38.035Z,1001.86
2017-12-16T09:02:03.539Z,1001.91
2017-12-16T09:02:29.038Z,1001.86
2017-12-16T09:02:54.521Z,1001.87
2017-12-16T09:03:20.032Z,1001.94
2017-12-16T09:03:45.522Z,1001.96
2017-12-16T09:04:11.024Z,1001.91
2017-12-16T09:04:36.522Z,1001.89
2017-12-16T09:05:02.008Z,1001.95
2017-12-16T09:05:27.497Z,1001.96
2017-12-16T09:05:53.022Z,1001.96
2017-12-16T09:06:18.510Z,1001.92
2017-12-16T09:06:44.038Z,1001.96
2017-12-16T09:07:09.573Z,1001.93
2017-12-16T09:07:35.057Z,1001.96
2017-12-16T09:08:00.545Z,1001.95
2017-12-16T09:08:26.012Z,1001.97
2017-12-16T09:08:51.540Z,1001.98
2017-12-16T09:09:17.029Z,1001.97
2017-12-16T09:09:42.551Z,1002.01
2017-12-16T09:10:08.058Z,1002
2017-12-16T09:10:33.561Z,1002.05
2017-12-16T09:10:59.059Z,1002.06
2017-12-16T09:11:24.576Z,1002.03
2017-12-16T09:11:50.075Z,1002.08
2017-12-16T09:12:15.560Z,1002.06
2017-12-16T09:12:41.085Z,1002.04
2017-12-16T09:13:06.552Z,1002.05
2017-12-16T09:13:32.022Z,1002.06
2017-12-16T09:13:57.517Z,1002.12
2017-12-16T09:14:23.014Z,1002.08
2017-12-16T09:14:48.500Z,1002.08
2017-12-16T09:15:13.976Z,1002.09
2017-12-16T09:15:39.491Z,1002.09
2017-12-16T09:16:04.998Z,1002.13
2017-12-16T09:16:30.497Z,1002.12
2017-12-16T09:16:55.970Z,1002.13
2017-12-16T09:17:21.474Z,1002.13
2017-12-16T09:17:46.977Z,1002.14
2017-12-16T09:18:12.461Z,1002.13
2017-12-16T09:18:37.962Z,1002.1
2017-12-16T09:19:03.430Z,1002.14
2017-12-16T09:19:28.893Z,1002.18
2017-12-16T09:19:54.356Z,1002.13
2017-12-16T09:20:19.882Z,1002.14
2017-12-16T09:20:45.386Z,1002.16
2017-12-16T09:21:10.881Z,1002.15
2017-12-16T09:21:36.366Z,1002.22
2017-12-16T09:22:01.870Z,1002.17
2017-12-16T09:22:27.365Z,1002.19
2017-12-16T09:22:52.831Z,1002.24
2017-12-16T09:23:18.314Z,1002.21
2017-12-16T09:23:43.845Z,1002.22
2017-12-16T09:24:09.301Z,1002.16
2017-12-16T09:24:34.819Z,1002.25
2017-12-16T09:25:00.285Z,1002.21
2017-12-16T09:25:25.749Z,1002.24
2017-12-16T09:25:51.231Z,1002.24
2017-12-16T09:26:16.685Z,1002.22
2017-12-16T09:26:42.176Z,1002.2
2017-12-16T09:27:51.073Z,1002.26
2017-12-16T09:28:16.556Z,1002.25
2017-12-16T09:28:42.053Z,1002.25
2017-12-16T09:29:07.555Z,1002.28
2017-12-16T09:29:33.043Z,1002.3
2017-12-16T09:29:58.501Z,1002.31
2017-12-16T09:30:23.999Z,1002.29
2017-12-16T09:30:49.489Z,1002.33
2017-12-16T09:31:15.003Z,1002.32
2017-12-16T09:31:40.524Z,1002.27
2017-12-16T09:32:06.051Z,1002.33
2017-12-16T09:32:31.536Z,1002.31
2017-12-16T09:32:57.038Z,1002.42
2017-12-16T09:33:22.515Z,1002.41
2017-12-16T09:33:48.088Z,1002.41
2017-12-16T09:34:13.544Z,1002.39
2017-12-16T09:34:39.031Z,1002.4
2017-12-16T09:35:04.534Z,1002.4
2017-12-16T09:35:30.000Z,1002.47
2017-12-16T09:35:55.508Z,1002.5
2017-12-16T09:36:21.006Z,1002.44
2017-12-16T09:36:46.555Z,1002.49
2017-12-16T09:37:12.039Z,1002.47
2017-12-16T09:37:37.517Z,1002.48
2017-12-16T09:38:03.343Z,1002.44
2017-12-16T09:38:28.572Z,1002.51
2017-12-16T09:38:54.086Z,1002.44
2017-12-16T09:39:19.570Z,1002.47
2017-12-16T09:39:45.084Z,1002.45
2017-12-16T09:40:10.610Z,1002.45
2017-12-16T09:40:36.073Z,1002.41
2017-12-16T09:41:01.600Z,1002.45
2017-12-16T09:41:27.077Z,1002.43
2017-12-16T09:41:52.571Z,1002.49
2017-12-16T09:42:18.093Z,1002.43
2017-12-16T09:42:43.588Z,1002.45
2017-12-16T09:43:09.092Z,1002.46
2017-12-16T09:43:34.605Z,1002.51
2017-12-16T09:44:00.104Z,1002.48
2017-12-16T09:44:25.597Z,1002.44
2017-12-16T09:44:51.114Z,1002.46
2017-12-16T09:45:16.665Z,1002.45
2017-12-16T09:45:42.195Z,1002.47
2017-12-16T09:46:07.662Z,1002.48
2017-12-16T09:46:33.164Z,1002.47
2017-12-16T09:46:58.653Z,1002.48
2017-12-16T09:47:24.172Z,1002.47
2017-12-16T09:47:49.693Z,1002.52
2017-12-16T09:49:03.504Z,1002.56
2017-12-16T09:49:29.091Z,1002.55
2017-12-16T09:49:54.568Z,1002.57
2017-12-16T09:50:20.041Z,1002.55
2017-12-16T09:50:45.688Z,1002.52
2017-12-16T09:51:12.059Z,1002.56
2017-12-16T09:51:37.419Z,1002.56
2017-12-16T09:52:02.913Z,1002.53
2017-12-16T09:52:28.372Z,1002.55
2017-12-16T09:52:53.892Z,1002.52
2017-12-16T09:54:13.674Z,1002.56
2017-12-16T09:54:39.174Z,1002.6
2017-12-16T09:55:04.682Z,1002.61
2017-12-16T09:55:30.148Z,1002.57
2017-12-16T09:55:55.634Z,1002.61
2017-12-16T09:56:21.110Z,1002.63
2017-12-16T09:56:46.600Z,1002.63
2017-12-16T09:57:12.093Z,1002.63
2017-12-16T09:57:37.611Z,1002.61
2017-12-16T09:58:03.073Z,1002.66
2017-12-16T09:58:28.644Z,1002.66
2017-12-16T09:58:54.071Z,1002.66
2017-12-16T09:59:19.565Z,1002.69
2017-12-16T09:59:45.009Z,1002.68
2017-12-16T10:00:10.489Z,1002.77
2017-12-16T10:00:35.981Z,1002.77
2017-12-16T10:01:01.440Z,1002.75
2017-12-16T10:01:26.916Z,1002.75
2017-12-16T10:01:52.383Z,1002.73
2017-12-16T10:02:17.868Z,1002.74
2017-12-16T10:02:43.332Z,1002.72
2017-12-16T10:03:08.840Z,1002.76
2017-12-16T10:03:34.313Z,1002.77
2017-12-16T10:03:59.786Z,1002.77
2017-12-16T10:04:25.284Z,1002.74
2017-12-16T10:04:50.753Z,1002.74
2017-12-16T10:05:16.252Z,1002.71
2017-12-16T10:05:41.750Z,1002.74
2017-12-16T10:06:07.206Z,1002.75
2017-12-16T10:06:32.692Z,1002.75
2017-12-16T10:06:58.227Z,1002.72
2017-12-16T10:07:23.735Z,1002.73
2017-12-16T10:08:27.322Z,1002.78
2017-12-16T10:08:52.813Z,1002.74
2017-12-16T10:09:18.269Z,1002.74
2017-12-16T10:09:43.730Z,1002.73
2017-12-16T10:10:09.213Z,1002.73
2017-12-16T10:10:34.729Z,1002.78
2017-12-16T10:11:00.223Z,1002.72
2017-12-16T10:11:25.722Z,1002.74
2017-12-16T10:11:51.198Z,1002.72
2017-12-16T10:12:16.685Z,1002.74
2017-12-16T10:12:42.155Z,1002.73
2017-12-16T10:13:07.643Z,1002.7
2017-12-16T10:13:33.141Z,1002.72
2017-12-16T10:13:58.610Z,1002.74
2017-12-16T10:14:24.096Z,1002.72
2017-12-16T10:14:49.559Z,1002.77
2017-12-16T10:15:15.016Z,1002.66
2017-12-16T10:15:40.539Z,1002.7
2017-12-16T10:16:06.034Z,1002.73
2017-12-16T10:16:31.529Z,1002.74
2017-12-16T10:16:57.016Z,1002.75
2017-12-16T10:17:22.472Z,1002.76
2017-12-16T10:17:47.937Z,1002.74
2017-12-16T10:18:13.438Z,1002.76
2017-12-16T10:18:38.937Z,1002.72
2017-12-16T10:19:04.434Z,1002.76
2017-12-16T10:19:29.931Z,1002.74
2017-12-16T10:19:55.424Z,1002.76
2017-12-16T10:20:20.943Z,1002.8
2017-12-16T10:20:46.422Z,1002.77
2017-12-16T10:21:11.888Z,1002.83
2017-12-16T10:21:37.363Z,1002.74
2017-12-16T10:22:02.820Z,1002.78
2017-12-16T10:22:28.311Z,1002.78
2017-12-16T10:22:54.274Z,1002.78
2017-12-16T10:23:19.728Z,1002.75
2017-12-16T10:23:45.311Z,1002.77
2017-12-16T10:24:10.796Z,1002.79
2017-12-16T10:24:36.408Z,1002.77
2017-12-16T10:25:01.768Z,1002.79
2017-12-16T10:25:27.325Z,1002.81
2017-12-16T10:25:52.785Z,1002.79
2017-12-16T10:26:18.259Z,1002.81
2017-12-16T10:26:43.761Z,1002.81
2017-12-16T10:27:09.264Z,1002.77
2017-12-16T10:27:34.774Z,1002.79
2017-12-16T10:28:00.274Z,1002.82
2017-12-16T10:28:25.746Z,1002.82
2017-12-16T10:28:51.236Z,1002.82
2017-12-16T10:29:49.744Z,1002.85
2017-12-16T10:30:15.233Z,1002.83